Time;durP1;ratioP1;P1;durP2;ratioP2;P2;SDS_P1;SDS_P2;PMS_P1;PMS_P2;Temp;Humidity;BMP_temperature;BMP_pressure;BME280_temperature;BME280_humidity;BME280_pressure;Samples;Min_cycle;Max_cycle;Signal;HPM_P1;HPM_P2
2020/12/19 00:01:48;;;;;;;28.65;26.65;;;;;;;;;;5073791;28;20207;-84
2020/12/19 00:04:15;;;;;;;28.92;26.45;;;;;;;;;;5074112;28;20228;-84
2020/12/19 00:06:44;;;;;;;28.90;26.80;;;;;;;;;;5074163;28;20633;-84
2020/12/19 00:09:11;;;;;;;29.98;27.58;;;;;;;;;;5074043;28;20226;-84
2020/12/19 00:11:38;;;;;;;28.17;26.10;;;;;;;;;;5074865;28;20208;-84
2020/12/19 00:14:05;;;;;;;28.20;26.10;;;;;;;;;;5073765;28;20206;-84
2020/12/19 00:16:32;;;;;;;28.58;26.52;;;;;;;;;;5074140;28;20193;-84
2020/12/19 00:18:59;;;;;;;27.90;25.95;;;;;;;;;;5073725;28;20205;-84
2020/12/19 00:21:33;;;;;;;30.20;28.10;;;;;;;;;;5073974;28;20189;-84
2020/12/19 00:24:01;;;;;;;29.38;27.27;;;;;;;;;;5073546;28;20242;-83
2020/12/19 00:26:34;;;;;;;29.42;27.23;;;;;;;;;;5073420;28;20209;-84
2020/12/19 00:29:01;;;;;;;29.95;27.63;;;;;;;;;;5073852;28;20259;-83
2020/12/19 00:31:28;;;;;;;29.67;27.38;;;;;;;;;;5073526;28;20193;-84
2020/12/19 00:33:55;;;;;;;29.15;26.85;;;;;;;;;;5073752;28;20623;-84
2020/12/19 00:36:23;;;;;;;29.80;27.45;;;;;;;;;;5058598;28;20205;-84
2020/12/19 00:38:51;;;;;;;28.98;26.88;;;;;;;;;;5077639;28;20621;-84
2020/12/19 00:41:21;;;;;;;29.92;27.52;;;;;;;;;;5077323;28;20233;-84
2020/12/19 00:43:48;;;;;;;30.85;28.35;;;;;;;;;;5077659;28;20229;-84
2020/12/19 00:46:16;;;;;;;29.10;26.98;;;;;;;;;;5077242;28;20200;-84
2020/12/19 00:48:43;;;;;;;29.50;27.10;;;;;;;;;;5077528;28;20651;-84
2020/12/19 00:51:14;;;;;;;28.33;25.98;;;;;;;;;;5077405;28;20228;-84
2020/12/19 00:53:41;;;;;;;29.65;27.38;;;;;;;;;;5077200;28;20200;-84
2020/12/19 00:56:16;;;;;;;28.58;26.58;;;;;;;;;;5077496;28;20190;-84
2020/12/19 00:58:42;;;;;;;30.08;27.58;;;;;;;;;;5077163;28;20280;-84
2020/12/19 01:01:09;;;;;;;29.10;26.85;;;;;;;;;;5076994;28;20189;-84
2020/12/19 01:03:36;;;;;;;28.73;26.50;;;;;;;;;;5076693;28;20262;-84
2020/12/19 01:06:03;;;;;;;29.38;27.17;;;;;;;;;;5076950;28;20201;-84
2020/12/19 01:08:30;;;;;;;29.10;26.60;;;;;;;;;;5075719;28;20194;-84
2020/12/19 01:10:57;;;;;;;26.25;24.38;;;;;;;;;;5076727;28;20189;-84
2020/12/19 01:13:25;;;;;;;28.55;26.13;;;;;;;;;;5076582;28;20208;-83
2020/12/19 01:15:51;;;;;;;24.80;23.10;;;;;;;;;;5076895;28;20200;-84
2020/12/19 01:18:18;;;;;;;29.50;27.30;;;;;;;;;;5076778;28;20235;-84
2020/12/19 01:20:45;;;;;;;29.65;27.25;;;;;;;;;;5076773;28;20602;-84
2020/12/19 01:23:12;;;;;;;29.40;27.13;;;;;;;;;;5076396;28;20216;-84
2020/12/19 01:25:39;;;;;;;28.25;26.15;;;;;;;;;;5076841;28;20189;-84
2020/12/19 01:28:06;;;;;;;29.88;27.52;;;;;;;;;;5076872;28;20191;-83
2020/12/19 01:30:34;;;;;;;28.65;26.65;;;;;;;;;;5076496;28;20650;-84
2020/12/19 01:33:00;;;;;;;30.05;27.42;;;;;;;;;;5076697;28;20228;-84
2020/12/19 01:35:27;;;;;;;28.08;26.08;;;;;;;;;;5076591;28;20632;-84
2020/12/19 01:37:54;;;;;;;29.27;26.98;;;;;;;;;;5076342;28;20190;-84
2020/12/19 01:40:21;;;;;;;29.27;27.25;;;;;;;;;;5076295;28;20192;-84
2020/12/19 01:42:48;;;;;;;30.30;27.92;;;;;;;;;;5058640;28;20278;-83
2020/12/19 01:45:15;;;;;;;29.75;27.42;;;;;;;;;;5076395;28;20201;-84
2020/12/19 01:47:42;;;;;;;28.95;26.85;;;;;;;;;;5075143;28;20197;-84
2020/12/19 01:50:09;;;;;;;31.30;28.90;;;;;;;;;;5076272;28;20189;-83
2020/12/19 01:52:37;;;;;;;30.33;28.08;;;;;;;;;;5076436;28;20224;-84
2020/12/19 01:55:04;;;;;;;28.63;26.63;;;;;;;;;;5075868;28;20200;-84
2020/12/19 01:57:32;;;;;;;29.42;27.13;;;;;;;;;;5076188;28;20189;-84
2020/12/19 01:59:59;;;;;;;30.83;28.50;;;;;;;;;;5075994;28;20554;-84
2020/12/19 02:02:26;;;;;;;29.65;27.38;;;;;;;;;;5075576;28;20279;-84
2020/12/19 02:04:54;;;;;;;30.45;28.05;;;;;;;;;;5076082;28;20553;-83
2020/12/19 02:07:22;;;;;;;29.35;27.17;;;;;;;;;;5076503;28;20283;-84
2020/12/19 02:09:50;;;;;;;29.52;27.23;;;;;;;;;;5075912;28;20190;-84
2020/12/19 02:12:18;;;;;;;30.52;28.23;;;;;;;;;;5075968;28;20194;-84
2020/12/19 02:14:44;;;;;;;33.03;30.15;;;;;;;;;;5075603;28;20189;-83
2020/12/19 02:17:12;;;;;;;31.58;29.15;;;;;;;;;;5075671;28;20190;-84
2020/12/19 02:19:39;;;;;;;34.10;30.90;;;;;;;;;;5075493;28;20246;-83
2020/12/19 02:22:08;;;;;;;31.77;29.08;;;;;;;;;;5076018;28;20196;-83
2020/12/19 02:24:36;;;;;;;32.70;30.05;;;;;;;;;;5075809;28;20217;-84
2020/12/19 02:27:02;;;;;;;32.63;30.10;;;;;;;;;;5075867;28;20235;-84
2020/12/19 02:29:31;;;;;;;33.20;30.58;;;;;;;;;;5075303;28;20255;-84
2020/12/19 02:31:59;;;;;;;31.85;29.35;;;;;;;;;;5075712;28;20624;-83
2020/12/19 02:34:26;;;;;;;30.15;27.95;;;;;;;;;;5075817;28;20192;-83
2020/12/19 02:36:53;;;;;;;30.83;28.52;;;;;;;;;;5076027;28;20551;-83
2020/12/19 02:39:20;;;;;;;33.15;30.48;;;;;;;;;;5079211;28;20216;-83
2020/12/19 02:41:48;;;;;;;32.95;30.30;;;;;;;;;;5080581;28;20236;-84
2020/12/19 02:44:15;;;;;;;33.00;30.38;;;;;;;;;;5079915;28;20224;-84
2020/12/19 02:46:43;;;;;;;34.60;31.42;;;;;;;;;;5077217;28;20223;-83
2020/12/19 02:49:10;;;;;;;34.05;31.55;;;;;;;;;;5075482;28;20188;-83
2020/12/19 02:51:36;;;;;;;33.50;30.60;;;;;;;;;;5075326;28;20632;-83
2020/12/19 02:54:03;;;;;;;32.38;29.33;;;;;;;;;;5075218;28;20196;-84
2020/12/19 02:56:31;;;;;;;35.13;32.22;;;;;;;;;;5075267;28;20556;-84
2020/12/19 02:58:59;;;;;;;36.47;33.40;;;;;;;;;;5074934;28;20531;-84
2020/12/19 03:01:29;;;;;;;34.45;31.15;;;;;;;;;;5074965;28;20193;-84
2020/12/19 03:03:56;;;;;;;34.33;31.25;;;;;;;;;;5074500;28;20252;-83
2020/12/19 03:06:22;;;;;;;32.35;29.70;;;;;;;;;;5075250;28;20229;-83
2020/12/19 03:08:49;;;;;;;33.92;31.15;;;;;;;;;;5074980;28;20209;-84
2020/12/19 03:11:16;;;;;;;35.90;32.83;;;;;;;;;;5074585;28;20192;-84
2020/12/19 03:13:43;;;;;;;35.97;32.95;;;;;;;;;;5074749;28;20193;-84
2020/12/19 03:16:11;;;;;;;33.75;30.77;;;;;;;;;;5074752;28;20193;-83
2020/12/19 03:18:38;;;;;;;33.20;30.40;;;;;;;;;;5074887;28;20205;-84
2020/12/19 03:21:04;;;;;;;36.17;33.03;;;;;;;;;;5074359;28;20190;-84
2020/12/19 03:23:31;;;;;;;36.17;32.95;;;;;;;;;;5074473;28;20221;-84
2020/12/19 03:25:58;;;;;;;35.25;32.35;;;;;;;;;;5074488;28;20194;-84
2020/12/19 03:28:25;;;;;;;33.45;30.73;;;;;;;;;;5074640;28;20188;-83
2020/12/19 03:30:52;;;;;;;34.75;31.73;;;;;;;;;;5074314;28;20194;-85
2020/12/19 03:33:19;;;;;;;36.60;33.28;;;;;;;;;;5074179;28;20300;-84
2020/12/19 03:35:46;;;;;;;37.20;33.88;;;;;;;;;;5074608;28;20246;-84
2020/12/19 03:38:13;;;;;;;39.17;35.63;;;;;;;;;;5074344;28;20224;-84
2020/12/19 03:40:40;;;;;;;32.63;29.92;;;;;;;;;;5056241;28;20251;-84
2020/12/19 03:43:07;;;;;;;37.50;34.00;;;;;;;;;;5056421;28;20735;-84
2020/12/19 03:45:34;;;;;;;37.22;33.55;;;;;;;;;;5074172;28;20203;-83
2020/12/19 03:48:01;;;;;;;38.50;34.90;;;;;;;;;;5074095;28;20209;-83
2020/12/19 03:50:28;;;;;;;37.33;33.55;;;;;;;;;;5074627;28;20744;-83
2020/12/19 03:52:55;;;;;;;37.85;34.33;;;;;;;;;;5056815;28;20196;-83
2020/12/19 03:55:22;;;;;;;37.78;34.25;;;;;;;;;;5074510;28;20193;-84
2020/12/19 03:57:49;;;;;;;34.55;31.30;;;;;;;;;;5074732;28;20201;-83
2020/12/19 04:00:16;;;;;;;36.60;33.13;;;;;;;;;;5074141;28;20563;-84
2020/12/19 04:02:42;;;;;;;35.22;31.75;;;;;;;;;;5073843;28;20240;-83
2020/12/19 04:05:11;;;;;;;38.22;34.50;;;;;;;;;;5073981;28;20193;-83
2020/12/19 04:07:39;;;;;;;38.50;34.70;;;;;;;;;;5073872;28;20191;-84
2020/12/19 04:10:07;;;;;;;36.70;33.28;;;;;;;;;;5075007;28;20580;-83
2020/12/19 04:12:34;;;;;;;37.40;33.92;;;;;;;;;;5078382;28;20249;-83
2020/12/19 04:15:01;;;;;;;36.70;33.30;;;;;;;;;;5078059;28;20254;-83
2020/12/19 04:17:29;;;;;;;37.80;34.30;;;;;;;;;;5077968;28;20624;-84
2020/12/19 04:19:56;;;;;;;39.55;35.92;;;;;;;;;;5077371;28;20740;-83
2020/12/19 04:22:22;;;;;;;37.92;34.33;;;;;;;;;;5077723;28;20199;-83
2020/12/19 04:24:50;;;;;;;38.65;34.80;;;;;;;;;;5077428;28;20215;-83
2020/12/19 04:27:17;;;;;;;37.85;34.33;;;;;;;;;;5077433;28;20230;-83
2020/12/19 04:29:44;;;;;;;39.53;35.53;;;;;;;;;;5077541;28;20226;-84
2020/12/19 04:32:11;;;;;;;39.33;35.38;;;;;;;;;;5077633;28;20525;-83
2020/12/19 04:34:38;;;;;;;39.67;35.65;;;;;;;;;;5077379;28;20251;-83
2020/12/19 04:37:05;;;;;;;38.15;34.13;;;;;;;;;;5077480;28;20193;-84
2020/12/19 04:39:32;;;;;;;36.95;33.35;;;;;;;;;;5077871;28;20216;-84
2020/12/19 04:41:59;;;;;;;40.78;36.38;;;;;;;;;;5077015;28;20220;-83
2020/12/19 04:44:26;;;;;;;38.97;35.05;;;;;;;;;;5077038;28;20216;-83
2020/12/19 04:46:53;;;;;;;39.25;35.55;;;;;;;;;;5077717;28;20674;-83
2020/12/19 04:49:20;;;;;;;37.83;34.35;;;;;;;;;;5077197;28;20201;-84
2020/12/19 04:51:47;;;;;;;37.10;33.80;;;;;;;;;;5077868;28;20221;-84
2020/12/19 04:54:14;;;;;;;40.08;36.10;;;;;;;;;;5077313;28;20203;-84
2020/12/19 04:56:41;;;;;;;37.17;33.80;;;;;;;;;;5077200;28;20198;-83
2020/12/19 04:59:09;;;;;;;39.33;35.55;;;;;;;;;;5077369;28;20256;-84
2020/12/19 05:01:36;;;;;;;40.03;35.90;;;;;;;;;;5076849;28;20188;-83
2020/12/19 05:04:03;;;;;;;44.42;39.83;;;;;;;;;;5076960;28;20222;-84
2020/12/19 05:06:30;;;;;;;41.60;37.33;;;;;;;;;;5077164;28;20235;-83
2020/12/19 05:08:57;;;;;;;41.78;37.50;;;;;;;;;;5076804;28;20557;-83
2020/12/19 05:11:25;;;;;;;39.42;35.17;;;;;;;;;;5077003;28;20184;-83
2020/12/19 05:13:52;;;;;;;40.50;36.40;;;;;;;;;;5077214;28;20209;-84
2020/12/19 05:16:20;;;;;;;38.95;34.85;;;;;;;;;;5076817;28;20190;-84
2020/12/19 05:18:47;;;;;;;37.90;34.20;;;;;;;;;;5076344;28;20193;-84
2020/12/19 05:21:14;;;;;;;38.60;34.78;;;;;;;;;;5075829;28;20209;-84
2020/12/19 05:23:42;;;;;;;36.38;32.95;;;;;;;;;;5076384;28;20550;-84
2020/12/19 05:26:09;;;;;;;39.75;35.92;;;;;;;;;;5077130;28;20189;-84
2020/12/19 05:28:37;;;;;;;39.17;35.63;;;;;;;;;;5076560;28;20189;-85
2020/12/19 05:31:04;;;;;;;39.92;36.03;;;;;;;;;;5076680;28;20655;-85
2020/12/19 05:33:33;;;;;;;38.38;34.95;;;;;;;;;;5076605;28;20651;-84
2020/12/19 05:36:00;;;;;;;40.40;36.33;;;;;;;;;;5076516;28;20243;-85
2020/12/19 05:38:28;;;;;;;37.30;33.47;;;;;;;;;;5076450;28;20195;-84
2020/12/19 05:40:55;;;;;;;41.05;37.17;;;;;;;;;;5076822;28;20276;-84
2020/12/19 05:43:22;;;;;;;39.15;35.15;;;;;;;;;;5076121;28;20228;-84
2020/12/19 05:45:49;;;;;;;39.45;35.53;;;;;;;;;;5076152;28;20192;-84
2020/12/19 05:48:16;;;;;;;38.70;35.25;;;;;;;;;;5076566;28;20246;-85
2020/12/19 05:50:44;;;;;;;35.72;32.53;;;;;;;;;;5076596;28;20193;-85
2020/12/19 05:53:11;;;;;;;38.38;34.60;;;;;;;;;;5076549;28;20219;-84
2020/12/19 05:55:38;;;;;;;39.53;35.35;;;;;;;;;;5076307;28;20272;-84
2020/12/19 05:58:05;;;;;;;40.58;36.65;;;;;;;;;;5075966;28;20183;-85
2020/12/19 06:00:33;;;;;;;40.50;36.60;;;;;;;;;;5076073;28;20192;-85
2020/12/19 06:03:02;;;;;;;41.90;37.67;;;;;;;;;;5075479;28;20337;-84
2020/12/19 06:05:30;;;;;;;38.00;33.85;;;;;;;;;;5076065;28;20189;-84
2020/12/19 06:07:58;;;;;;;38.50;34.60;;;;;;;;;;5075619;28;20197;-83
2020/12/19 06:10:25;;;;;;;40.00;36.20;;;;;;;;;;5075410;28;20212;-84
2020/12/19 06:12:53;;;;;;;38.15;34.28;;;;;;;;;;5075705;28;20200;-84
2020/12/19 06:15:32;;;;;;;37.13;33.53;;;;;;;;;;5075825;28;20185;-84
2020/12/19 06:18:01;;;;;;;40.80;36.80;;;;;;;;;;5075483;28;20190;-84
2020/12/19 06:20:29;;;;;;;40.72;36.63;;;;;;;;;;5075379;28;20185;-84
2020/12/19 06:22:58;;;;;;;41.95;37.88;;;;;;;;;;5075625;28;20256;-84
2020/12/19 06:25:41;;;;;;;42.75;38.42;;;;;;;;;;5075309;28;20291;-84
2020/12/19 06:28:08;;;;;;;39.97;36.22;;;;;;;;;;5075349;28;20696;-83
2020/12/19 06:30:35;;;;;;;40.65;36.63;;;;;;;;;;5075302;28;20185;-83
2020/12/19 06:33:09;;;;;;;41.25;37.28;;;;;;;;;;5074822;28;20196;-83
2020/12/19 06:35:36;;;;;;;38.22;34.72;;;;;;;;;;5075441;28;20192;-84
2020/12/19 06:38:04;;;;;;;38.90;35.30;;;;;;;;;;5075414;28;20197;-83
2020/12/19 06:40:38;;;;;;;40.60;36.45;;;;;;;;;;5075359;28;20189;-84
2020/12/19 06:43:12;;;;;;;41.55;37.45;;;;;;;;;;5074965;28;20379;-84
2020/12/19 06:45:38;;;;;;;38.28;34.67;;;;;;;;;;5075292;28;20202;-84
2020/12/19 06:48:05;;;;;;;34.10;30.92;;;;;;;;;;5074953;28;20204;-83
2020/12/19 06:50:51;;;;;;;39.22;35.55;;;;;;;;;;5074237;28;20193;-84
2020/12/19 06:53:19;;;;;;;40.05;36.22;;;;;;;;;;5074983;28;20198;-84
2020/12/19 06:55:46;;;;;;;39.92;35.85;;;;;;;;;;5074958;28;20193;-84
2020/12/19 06:58:13;;;;;;;36.72;32.92;;;;;;;;;;5075169;28;20240;-84
2020/12/19 07:00:40;;;;;;;42.17;37.97;;;;;;;;;;5075144;28;20196;-84
2020/12/19 07:03:07;;;;;;;42.10;38.00;;;;;;;;;;5074503;28;20237;-84
2020/12/19 07:05:34;;;;;;;37.85;34.35;;;;;;;;;;5074902;28;20207;-83
2020/12/19 07:08:16;;;;;;;40.08;36.28;;;;;;;;;;5074936;28;20193;-83
2020/12/19 07:10:44;;;;;;;39.45;35.75;;;;;;;;;;5074656;28;20242;-83
2020/12/19 07:13:11;;;;;;;38.42;34.65;;;;;;;;;;5074736;28;20192;-82
2020/12/19 07:15:46;;;;;;;42.22;37.60;;;;;;;;;;5074151;28;20639;-83
2020/12/19 07:18:26;;;;;;;38.72;34.78;;;;;;;;;;5072972;28;20197;-80
2020/12/19 07:20:59;;;;;;;40.97;36.88;;;;;;;;;;5073894;28;20197;-79
2020/12/19 07:23:26;;;;;;;31.42;28.63;;;;;;;;;;5073907;28;20219;-79
2020/12/19 07:25:54;;;;;;;41.35;36.75;;;;;;;;;;5056235;28;20503;-81
2020/12/19 07:28:21;;;;;;;39.20;35.45;;;;;;;;;;5074083;28;20191;-79
2020/12/19 07:30:48;;;;;;;39.58;35.38;;;;;;;;;;5074313;28;20551;-86
2020/12/19 07:33:15;;;;;;;40.80;36.47;;;;;;;;;;5074911;28;20197;-86
2020/12/19 07:35:42;;;;;;;40.88;36.55;;;;;;;;;;5074912;28;20212;-85
2020/12/19 07:38:09;;;;;;;38.97;35.28;;;;;;;;;;5074791;28;20205;-85
2020/12/19 07:40:36;;;;;;;40.03;35.92;;;;;;;;;;5075709;28;20204;-91
2020/12/19 07:43:04;;;;;;;39.15;35.65;;;;;;;;;;5073441;28;20256;-91
2020/12/19 07:45:31;;;;;;;40.45;36.75;;;;;;;;;;5073739;28;20207;-92
2020/12/19 07:47:58;;;;;;;39.97;36.00;;;;;;;;;;5074809;28;20223;-89
2020/12/19 07:50:25;;;;;;;40.75;36.53;;;;;;;;;;5074704;28;20619;-91
2020/12/19 07:52:59;;;;;;;41.47;37.50;;;;;;;;;;5074615;28;20238;-91
2020/12/19 07:55:26;;;;;;;40.50;36.80;;;;;;;;;;5074567;28;20211;-91
2020/12/19 07:57:54;;;;;;;39.13;35.33;;;;;;;;;;5074532;28;20710;-90
2020/12/19 08:00:22;;;;;;;41.00;37.35;;;;;;;;;;5073360;28;20190;-95
2020/12/19 08:02:49;;;;;;;38.63;34.95;;;;;;;;;;5080483;28;20258;-96
2020/12/19 08:05:16;;;;;;;38.78;35.25;;;;;;;;;;5079159;28;20191;-96
2020/12/19 08:07:43;;;;;;;40.30;36.70;;;;;;;;;;5088129;28;20184;-96
2020/12/19 08:10:11;;;;;;;39.08;35.72;;;;;;;;;;5093392;28;20234;-96
2020/12/19 08:12:39;;;;;;;40.65;36.92;;;;;;;;;;5297411;22;20238;-96
2020/12/19 08:15:06;;;;;;;39.60;36.03;;;;;;;;;;5146306;27;20656;-88
2020/12/19 08:17:37;;;;;;;41.10;37.40;;;;;;;;;;5137393;28;20641;-96
2020/12/19 08:20:04;;;;;;;39.40;36.00;;;;;;;;;;5148837;28;20193;-96
2020/12/19 08:22:32;;;;;;;39.03;35.60;;;;;;;;;;5139685;28;20198;-96
2020/12/19 08:24:59;;;;;;;39.00;35.35;;;;;;;;;;5121860;28;20271;-96
2020/12/19 08:27:28;;;;;;;39.08;35.67;;;;;;;;;;5143182;28;20183;-96
2020/12/19 08:30:01;;;;;;;38.58;35.20;;;;;;;;;;5140125;28;20211;-96
2020/12/19 08:32:28;;;;;;;38.25;34.20;;;;;;;;;;5153780;28;20191;-96
2020/12/19 08:34:57;;;;;;;39.33;35.92;;;;;;;;;;5151252;28;20200;-96
2020/12/19 08:37:23;;;;;;;37.95;34.45;;;;;;;;;;5147570;28;20192;-96
2020/12/19 08:40:17;;;;;;;36.00;32.80;;;;;;;;;;5135487;28;20203;-95
2020/12/19 08:42:45;;;;;;;40.08;36.33;;;;;;;;;;5052283;28;20229;-94
2020/12/19 08:45:16;;;;;;;38.63;34.47;;;;;;;;;;5053367;28;20619;-95
2020/12/19 08:47:43;;;;;;;38.80;35.38;;;;;;;;;;5035714;28;20198;-94
2020/12/19 08:50:11;;;;;;;37.10;33.55;;;;;;;;;;5052649;28;20186;-96
2020/12/19 08:52:38;;;;;;;36.28;33.08;;;;;;;;;;5052687;28;20206;-96
2020/12/19 08:55:05;;;;;;;34.88;32.00;;;;;;;;;;5052486;28;20301;-95
2020/12/19 08:57:33;;;;;;;32.28;29.63;;;;;;;;;;5055878;28;20191;-95
2020/12/19 09:00:10;;;;;;;32.40;29.33;;;;;;;;;;5059599;28;20198;-82
2020/12/19 09:02:38;;;;;;;36.42;33.10;;;;;;;;;;5055653;28;20190;-96
2020/12/19 09:05:05;;;;;;;35.20;31.95;;;;;;;;;;5055219;28;20254;-96
2020/12/19 09:07:34;;;;;;;27.85;25.63;;;;;;;;;;5039547;28;20301;-95
2020/12/19 09:10:01;;;;;;;35.08;32.05;;;;;;;;;;5055425;28;20761;-96
2020/12/19 09:12:28;;;;;;;29.45;26.80;;;;;;;;;;5038744;28;20249;-95
2020/12/19 09:14:54;;;;;;;36.05;32.97;;;;;;;;;;5055410;28;20196;-95
2020/12/19 09:17:31;;;;;;;36.15;33.05;;;;;;;;;;5061140;28;20206;-96
2020/12/19 09:20:01;;;;;;;36.33;33.20;;;;;;;;;;5126838;28;20270;-96
2020/12/19 09:22:28;;;;;;;34.20;31.40;;;;;;;;;;5125349;28;20631;-96
2020/12/19 09:24:56;;;;;;;35.00;31.92;;;;;;;;;;5122781;28;20224;-95
2020/12/19 09:27:23;;;;;;;33.85;30.90;;;;;;;;;;5122785;28;20214;-96
2020/12/19 09:29:50;;;;;;;33.25;30.70;;;;;;;;;;5118463;28;20199;-96
2020/12/19 09:32:18;;;;;;;36.97;33.97;;;;;;;;;;5100127;28;20196;-96
2020/12/19 09:34:44;;;;;;;36.00;33.03;;;;;;;;;;5121570;28;20192;-96
2020/12/19 09:37:11;;;;;;;33.10;30.38;;;;;;;;;;5118876;28;20196;-96
2020/12/19 09:39:38;;;;;;;33.70;30.90;;;;;;;;;;5118519;28;20241;-92
2020/12/19 09:42:06;;;;;;;32.40;29.75;;;;;;;;;;5118076;28;20216;-94
2020/12/19 09:44:33;;;;;;;33.00;30.30;;;;;;;;;;5117408;28;20270;-93
2020/12/19 09:47:00;;;;;;;33.60;31.00;;;;;;;;;;5117584;28;20187;-90
2020/12/19 09:49:26;;;;;;;33.30;30.55;;;;;;;;;;5117430;28;20683;-92
2020/12/19 09:51:53;;;;;;;30.15;27.92;;;;;;;;;;5117276;28;20198;-92
2020/12/19 09:54:20;;;;;;;34.20;31.70;;;;;;;;;;5116955;28;20241;-80
2020/12/19 09:56:47;;;;;;;33.67;31.13;;;;;;;;;;5116820;28;20197;-81
2020/12/19 09:59:14;;;;;;;31.97;29.47;;;;;;;;;;5115983;28;20554;-80
2020/12/19 10:01:41;;;;;;;34.60;31.87;;;;;;;;;;5116451;28;20417;-80
2020/12/19 10:04:08;;;;;;;35.63;32.83;;;;;;;;;;5116216;28;20541;-80
2020/12/19 10:06:35;;;;;;;35.03;32.57;;;;;;;;;;5116121;28;20193;-80
2020/12/19 10:09:02;;;;;;;34.33;31.60;;;;;;;;;;5115167;28;20455;-79
2020/12/19 10:11:28;;;;;;;34.30;31.50;;;;;;;;;;5116382;28;20192;-80
2020/12/19 10:13:55;;;;;;;32.63;30.17;;;;;;;;;;5131338;27;20698;-79
2020/12/19 10:16:23;;;;;;;32.85;30.38;;;;;;;;;;5118279;27;20210;-80
2020/12/19 10:18:50;;;;;;;33.95;31.35;;;;;;;;;;5136970;27;20196;-79
2020/12/19 10:21:17;;;;;;;32.43;29.80;;;;;;;;;;5136905;27;20192;-87
2020/12/19 10:23:44;;;;;;;32.88;30.40;;;;;;;;;;5136415;27;20957;-81
2020/12/19 10:26:11;;;;;;;32.22;29.58;;;;;;;;;;5136567;27;20186;-82
2020/12/19 10:28:38;;;;;;;33.47;31.08;;;;;;;;;;5136642;27;20276;-86
2020/12/19 10:31:05;;;;;;;30.77;28.50;;;;;;;;;;5136729;27;20184;-81
2020/12/19 10:33:33;;;;;;;31.83;29.45;;;;;;;;;;5136803;27;20443;-81
2020/12/19 10:36:00;;;;;;;29.33;27.30;;;;;;;;;;5118488;27;20197;-80
2020/12/19 10:38:26;;;;;;;29.23;27.25;;;;;;;;;;5136793;27;20427;-81
2020/12/19 10:40:53;;;;;;;29.10;27.08;;;;;;;;;;5136230;27;20721;-82
2020/12/19 10:43:20;;;;;;;30.73;28.30;;;;;;;;;;5118057;27;20188;-82
2020/12/19 10:45:47;;;;;;;31.13;28.87;;;;;;;;;;5134682;27;20451;-81
2020/12/19 10:48:14;;;;;;;31.63;29.33;;;;;;;;;;5117547;27;20451;-80
2020/12/19 10:50:42;;;;;;;29.83;27.73;;;;;;;;;;5135778;27;20599;-81
2020/12/19 10:53:09;;;;;;;29.70;27.60;;;;;;;;;;5117461;27;20413;-80
2020/12/19 10:55:41;;;;;;;28.40;26.50;;;;;;;;;;5136155;27;20415;-82
2020/12/19 10:58:07;;;;;;;29.37;27.27;;;;;;;;;;5136302;27;20438;-80
2020/12/19 11:00:34;;;;;;;27.77;25.67;;;;;;;;;;5135007;27;20900;-80
2020/12/19 11:03:01;;;;;;;29.10;26.97;;;;;;;;;;5135538;27;20437;-80
2020/12/19 11:05:28;;;;;;;31.13;28.83;;;;;;;;;;5135656;27;20477;-80
2020/12/19 11:07:55;;;;;;;29.02;26.92;;;;;;;;;;5135208;27;20615;-81
2020/12/19 11:10:22;;;;;;;28.00;26.10;;;;;;;;;;5135404;27;20612;-80
2020/12/19 11:12:49;;;;;;;29.37;27.27;;;;;;;;;;5116230;27;20236;-81
2020/12/19 11:15:16;;;;;;;28.33;26.38;;;;;;;;;;5135083;27;20449;-80
2020/12/19 11:17:43;;;;;;;29.10;27.00;;;;;;;;;;5135460;27;20183;-80
2020/12/19 11:20:10;;;;;;;28.43;26.33;;;;;;;;;;5135624;27;20573;-80
2020/12/19 11:22:37;;;;;;;28.53;26.33;;;;;;;;;;5135653;27;20420;-81
2020/12/19 11:25:04;;;;;;;29.60;27.50;;;;;;;;;;5135564;27;20452;-90
2020/12/19 11:27:31;;;;;;;29.47;27.37;;;;;;;;;;5135074;27;20454;-80
2020/12/19 11:29:58;;;;;;;30.27;28.15;;;;;;;;;;5135507;27;20455;-81
2020/12/19 11:32:25;;;;;;;28.95;26.75;;;;;;;;;;5135421;27;20196;-79
2020/12/19 11:34:52;;;;;;;28.13;26.23;;;;;;;;;;5135162;27;20653;-79
2020/12/19 11:37:19;;;;;;;27.60;25.70;;;;;;;;;;5134920;27;20421;-80
2020/12/19 11:39:46;;;;;;;28.10;26.20;;;;;;;;;;5135171;27;20413;-79
2020/12/19 11:42:14;;;;;;;28.23;26.23;;;;;;;;;;5128100;27;20486;-78
2020/12/19 11:44:41;;;;;;;26.70;24.60;;;;;;;;;;5121766;28;20449;-80
2020/12/19 11:47:07;;;;;;;28.85;26.85;;;;;;;;;;5114540;28;20196;-80
2020/12/19 11:49:34;;;;;;;26.43;24.73;;;;;;;;;;5114503;28;20193;-80
2020/12/19 11:52:01;;;;;;;27.40;25.57;;;;;;;;;;5114752;28;20429;-80
2020/12/19 11:54:28;;;;;;;27.03;25.17;;;;;;;;;;5114610;28;20417;-80
2020/12/19 11:56:55;;;;;;;26.00;24.10;;;;;;;;;;5114699;28;20438;-80
2020/12/19 11:59:23;;;;;;;27.95;25.65;;;;;;;;;;5114693;28;20413;-80
2020/12/19 12:01:49;;;;;;;28.07;25.97;;;;;;;;;;5114202;28;20200;-80
2020/12/19 12:04:16;;;;;;;27.50;25.52;;;;;;;;;;5114497;28;20445;-80
2020/12/19 12:06:43;;;;;;;28.03;26.13;;;;;;;;;;5114403;28;20193;-80
2020/12/19 12:09:10;;;;;;;26.80;24.70;;;;;;;;;;5113877;28;20836;-81
2020/12/19 12:11:37;;;;;;;27.20;25.30;;;;;;;;;;5114111;28;20441;-81
2020/12/19 12:14:04;;;;;;;26.67;24.97;;;;;;;;;;5114187;28;20518;-81
2020/12/19 12:16:31;;;;;;;26.77;24.93;;;;;;;;;;5114098;28;20444;-81
2020/12/19 12:18:58;;;;;;;26.83;24.92;;;;;;;;;;5114070;28;20413;-80
2020/12/19 12:21:26;;;;;;;26.77;25.03;;;;;;;;;;5114297;28;20195;-80
2020/12/19 12:23:53;;;;;;;27.63;25.73;;;;;;;;;;5114179;28;20847;-80
2020/12/19 12:26:23;;;;;;;28.63;26.63;;;;;;;;;;5114441;28;20500;-81
2020/12/19 12:28:50;;;;;;;28.40;26.20;;;;;;;;;;5114405;28;20481;-82
2020/12/19 12:31:21;;;;;;;27.63;25.70;;;;;;;;;;5115989;28;20443;-82
2020/12/19 12:33:48;;;;;;;27.30;25.50;;;;;;;;;;5119134;28;20752;-80
2020/12/19 12:36:15;;;;;;;27.30;25.50;;;;;;;;;;5117977;28;20430;-79
2020/12/19 12:38:42;;;;;;;27.85;25.85;;;;;;;;;;5117933;28;20459;-81
2020/12/19 12:41:09;;;;;;;26.00;24.30;;;;;;;;;;5118190;28;20221;-81
2020/12/19 12:43:36;;;;;;;27.25;25.45;;;;;;;;;;5118763;28;20788;-81
2020/12/19 12:46:03;;;;;;;26.77;24.87;;;;;;;;;;5118194;28;20189;-81
2020/12/19 12:48:30;;;;;;;25.67;23.87;;;;;;;;;;5117639;28;20446;-81
2020/12/19 12:50:57;;;;;;;27.50;25.60;;;;;;;;;;5117949;28;20442;-81
2020/12/19 12:53:24;;;;;;;27.03;25.13;;;;;;;;;;5117631;28;20424;-81
2020/12/19 12:55:51;;;;;;;27.30;25.33;;;;;;;;;;5117791;28;20417;-81
2020/12/19 12:58:18;;;;;;;26.60;24.80;;;;;;;;;;5118223;28;20451;-80
2020/12/19 13:00:45;;;;;;;26.20;24.40;;;;;;;;;;5117456;28;20413;-80
2020/12/19 13:03:12;;;;;;;27.37;25.37;;;;;;;;;;5117352;28;20470;-80
2020/12/19 13:05:39;;;;;;;27.07;25.17;;;;;;;;;;5117025;28;20472;-80
2020/12/19 13:08:07;;;;;;;27.40;25.50;;;;;;;;;;5117265;28;20461;-80
2020/12/19 13:10:33;;;;;;;27.07;25.17;;;;;;;;;;5117090;28;20468;-80
2020/12/19 13:13:00;;;;;;;27.53;25.63;;;;;;;;;;5117299;28;20475;-81
2020/12/19 13:15:27;;;;;;;26.17;24.57;;;;;;;;;;5117408;28;20429;-80
2020/12/19 13:17:54;;;;;;;26.23;24.50;;;;;;;;;;5117075;28;20463;-80
2020/12/19 13:20:21;;;;;;;25.50;23.70;;;;;;;;;;5117983;28;20440;-80
2020/12/19 13:22:48;;;;;;;25.77;24.07;;;;;;;;;;5116986;28;20541;-80
2020/12/19 13:25:15;;;;;;;26.77;24.80;;;;;;;;;;5117132;28;20486;-80
2020/12/19 13:27:42;;;;;;;25.97;24.27;;;;;;;;;;5116843;28;20817;-80
2020/12/19 13:30:09;;;;;;;25.63;23.93;;;;;;;;;;5116695;28;20461;-80
2020/12/19 13:32:36;;;;;;;26.23;24.60;;;;;;;;;;5117202;28;20817;-80
2020/12/19 13:35:03;;;;;;;26.23;24.40;;;;;;;;;;5117104;28;20433;-81
2020/12/19 13:37:29;;;;;;;26.00;24.10;;;;;;;;;;5116770;28;20911;-81
2020/12/19 13:39:56;;;;;;;25.50;23.80;;;;;;;;;;5116766;28;20420;-80
2020/12/19 13:42:24;;;;;;;26.20;24.50;;;;;;;;;;5116538;28;20434;-81
2020/12/19 13:44:51;;;;;;;26.80;25.00;;;;;;;;;;5116633;28;20486;-81
2020/12/19 13:47:18;;;;;;;27.83;25.93;;;;;;;;;;5116981;28;20435;-81
2020/12/19 13:49:45;;;;;;;26.23;24.47;;;;;;;;;;5099305;28;20854;-81
2020/12/19 13:52:12;;;;;;;25.73;24.03;;;;;;;;;;5116819;28;20504;-81
2020/12/19 13:54:39;;;;;;;26.53;24.83;;;;;;;;;;5116869;28;20853;-81
2020/12/19 13:57:06;;;;;;;25.23;23.70;;;;;;;;;;5117073;28;20414;-81
2020/12/19 13:59:34;;;;;;;25.87;24.13;;;;;;;;;;5116430;28;20410;-81
2020/12/19 14:02:03;;;;;;;24.67;23.07;;;;;;;;;;5116135;28;20910;-80
2020/12/19 14:04:30;;;;;;;25.67;23.87;;;;;;;;;;5116614;28;20951;-82
2020/12/19 14:06:56;;;;;;;25.90;24.30;;;;;;;;;;5116422;28;20427;-81
2020/12/19 14:09:24;;;;;;;26.80;24.90;;;;;;;;;;5116712;28;20410;-81
2020/12/19 14:11:51;;;;;;;26.43;24.63;;;;;;;;;;5098561;28;20914;-81
2020/12/19 14:14:17;;;;;;;28.20;26.30;;;;;;;;;;5115702;28;21001;-80
2020/12/19 14:16:45;;;;;;;26.77;24.77;;;;;;;;;;5116090;28;20792;-80
2020/12/19 14:19:12;;;;;;;26.10;24.50;;;;;;;;;;5115930;28;20401;-80